Time;durP1;ratioP1;P1;durP2;ratioP2;P2;SDS_P1;SDS_P2;PMS_P1;PMS_P2;Temp;Humidity;BMP_temperature;BMP_pressure;BME280_temperature;BME280_humidity;BME280_pressure;Samples;Min_cycle;Max_cycle;Signal;HPM_P1;HPM_P2
2024/03/19 00:05:05;;;;;;;0.00;0.00;;;;;;;-0.24;68.56;101759.91;15492123;28;20046;-55
2024/03/19 00:12:40;;;;;;;0.00;0.00;;;;;;;0.22;67.15;101759.88;15483083;28;20070;-47
2024/03/19 00:20:13;;;;;;;0.00;0.00;;;;;;;-0.05;66.95;101762.84;15471008;28;20381;-50
2024/03/19 00:27:48;;;;;;;6.72;1.00;;;;;;;-0.38;69.16;101758.28;15491377;28;20042;-50
2024/03/19 00:35:22;;;;;;;0.28;0.28;;;;;;;-0.02;68.55;101753.84;15490472;28;20045;-49
2024/03/19 00:42:57;;;;;;;0.80;0.75;;;;;;;-0.30;67.89;101755.09;15488956;28;20510;-56
2024/03/19 00:50:31;;;;;;;0.00;0.00;;;;;;;-0.32;67.91;101754.38;15489985;28;20048;-49
2024/03/19 00:58:06;;;;;;;0.00;0.00;;;;;;;0.31;65.82;101747.78;15490728;28;20518;-51
2024/03/19 01:05:41;;;;;;;0.00;0.00;;;;;;;0.40;65.48;101749.69;15501506;28;20054;-51
2024/03/19 01:13:19;;;;;;;0.20;0.20;;;;;;;-0.15;66.79;101746.00;15485051;28;20105;-50
2024/03/19 01:20:54;;;;;;;0.00;0.00;;;;;;;0.01;67.00;101742.22;15500610;28;20149;-50
2024/03/19 01:28:29;;;;;;;0.00;0.00;;;;;;;0.36;65.93;101752.69;15499747;28;20056;-52
2024/03/19 01:36:04;;;;;;;0.10;0.10;;;;;;;0.42;66.07;101753.09;15502982;28;20042;-51
2024/03/19 01:43:41;;;;;;;0.00;0.00;;;;;;;0.19;65.79;101746.09;15500517;28;20043;-50
2024/03/19 01:51:18;;;;;;;3.15;1.75;;;;;;;0.25;65.53;101746.47;15494507;28;20458;-54
2024/03/19 01:58:55;;;;;;;0.00;0.00;;;;;;;-0.14;67.02;101736.28;15499161;28;20046;-52
2024/03/19 02:06:28;;;;;;;0.00;0.00;;;;;;;-0.31;67.41;101750.78;15498228;28;20073;-53
2024/03/19 02:14:05;;;;;;;0.00;0.00;;;;;;;0.06;66.44;101748.84;15501033;28;20093;-55
2024/03/19 02:21:40;;;;;;;0.05;0.05;;;;;;;-0.58;69.14;101743.94;15498283;28;20039;-53
2024/03/19 02:29:15;;;;;;;0.00;0.00;;;;;;;-0.79;69.17;101742.91;15496242;28;20074;-52
2024/03/19 02:36:49;;;;;;;0.00;0.00;;;;;;;-0.84;69.47;101723.91;15497053;28;20426;-52
2024/03/19 02:44:24;;;;;;;0.20;0.20;;;;;;;-0.55;68.85;101729.72;15494137;28;20427;-52
2024/03/19 02:51:58;;;;;;;0.10;0.10;;;;;;;-0.49;68.43;101723.13;15496305;28;20047;-52
2024/03/19 02:59:36;;;;;;;0.00;0.00;;;;;;;-0.33;69.12;101727.16;15496215;28;20045;-51
2024/03/19 03:07:10;;;;;;;0.00;0.00;;;;;;;-0.26;67.90;101719.59;15494254;28;20038;-52
2024/03/19 03:14:45;;;;;;;0.00;0.00;;;;;;;-0.30;67.73;101726.06;15491751;28;20463;-52
2024/03/19 03:22:19;;;;;;;0.30;0.30;;;;;;;-0.34;67.36;101729.88;15495708;28;20054;-51
2024/03/19 03:29:56;;;;;;;0.00;0.00;;;;;;;-0.40;68.10;101735.63;15500153;28;20101;-55
2024/03/19 03:37:30;;;;;;;0.00;0.00;;;;;;;-0.87;68.58;101739.97;15474778;28;20117;-51
2024/03/19 03:45:05;;;;;;;0.00;0.00;;;;;;;-0.43;68.06;101741.13;15474619;28;20045;-52
2024/03/19 03:52:40;;;;;;;0.00;0.00;;;;;;;-0.55;68.16;101745.53;15490553;28;20530;-53
2024/03/19 04:00:17;;;;;;;0.00;0.00;;;;;;;-0.68;67.12;101756.13;15492192;28;20055;-53
2024/03/19 04:07:51;;;;;;;0.00;0.00;;;;;;;-0.61;67.70;101754.72;15491106;28;20056;-52
2024/03/19 04:15:28;;;;;;;0.00;0.00;;;;;;;-0.68;68.28;101763.19;15507762;23;20042;-51
2024/03/19 04:23:02;;;;;;;2.92;2.30;;;;;;;-1.20;70.66;101764.31;15547240;28;20133;-46
2024/03/19 04:30:37;;;;;;;0.00;0.00;;;;;;;-1.22;70.14;101766.19;15538139;28;20418;-47
2024/03/19 04:38:14;;;;;;;2.60;1.38;;;;;;;-0.85;68.86;101769.69;15540771;28;20384;-44
2024/03/19 04:45:51;;;;;;;0.10;0.10;;;;;;;-0.63;68.04;101775.09;15544891;28;20158;-46
2024/03/19 04:53:26;;;;;;;0.08;0.08;;;;;;;-1.46;71.74;101772.25;15529868;28;20042;-50
2024/03/19 05:01:07;;;;;;;0.00;0.00;;;;;;;-1.56;71.96;101761.50;15503279;28;20062;-46
2024/03/19 05:08:41;;;;;;;3.70;1.20;;;;;;;-2.01;74.58;101759.41;15529817;28;20038;-50
2024/03/19 05:16:16;;;;;;;0.10;0.10;;;;;;;-2.21;76.28;101758.94;15513404;28;20082;-47
2024/03/19 05:23:50;;;;;;;0.00;0.00;;;;;;;-2.19;76.36;101757.09;15523739;28;20076;-47
2024/03/19 05:31:27;;;;;;;0.52;0.52;;;;;;;-1.67;75.16;101771.13;15540025;28;20329;-46
2024/03/19 05:39:00;;;;;;;0.00;0.00;;;;;;;-1.51;73.53;101763.81;15528213;28;20589;-47
2024/03/19 05:46:38;;;;;;;0.03;0.03;;;;;;;0.62;68.14;101772.66;15542040;28;20072;-46
2024/03/19 05:54:12;;;;;;;0.00;0.00;;;;;;;-0.91;70.84;101789.41;15553588;28;20052;-50
2024/03/19 06:01:51;;;;;;;0.00;0.00;;;;;;;-1.28;73.22;101788.56;15551276;28;20173;-48
2024/03/19 06:09:25;;;;;;;0.00;0.00;;;;;;;-1.21;73.24;101799.50;15525531;28;20050;-46
2024/03/19 06:17:01;;;;;;;0.00;0.00;;;;;;;-1.18;74.16;101810.66;15550546;28;20046;-46
2024/03/19 06:24:37;;;;;;;0.00;0.00;;;;;;;-0.31;71.70;101800.91;15504443;28;20741;-47
2024/03/19 06:32:13;;;;;;;1.55;0.47;;;;;;;-0.13;70.85;101809.25;15524417;28;20137;-52
2024/03/19 06:39:47;;;;;;;0.00;0.00;;;;;;;0.12;69.67;101814.34;15536700;28;20388;-48
2024/03/19 06:47:23;;;;;;;0.00;0.00;;;;;;;1.75;66.03;101816.41;15541493;28;20081;-46
2024/03/19 06:54:57;;;;;;;0.00;0.00;;;;;;;2.98;60.96;101821.88;15520285;28;20192;-53
2024/03/19 07:02:35;;;;;;;0.08;0.08;;;;;;;3.05;60.81;101823.03;15537172;28;20069;-46
2024/03/19 07:10:12;;;;;;;0.20;0.20;;;;;;;3.69;58.17;101821.78;15520186;28;20048;-46
2024/03/19 07:17:49;;;;;;;0.00;0.00;;;;;;;3.95;58.82;101833.50;15534499;28;20053;-46
2024/03/19 07:25:23;;;;;;;1.60;0.55;;;;;;;4.01;57.85;101825.00;15523994;28;20041;-46
2024/03/19 07:33:01;;;;;;;0.10;0.10;;;;;;;4.13;58.24;101822.19;15529776;28;20058;-48
2024/03/19 07:40:37;;;;;;;0.45;0.45;;;;;;;5.08;57.08;101819.38;15533084;28;20422;-48
2024/03/19 07:48:13;;;;;;;0.45;0.45;;;;;;;4.88;57.31;101829.28;15542109;28;20049;-50
2024/03/19 07:55:49;;;;;;;0.10;0.10;;;;;;;5.29;55.36;101845.75;15542440;28;20048;-48
2024/03/19 08:03:24;;;;;;;0.93;0.90;;;;;;;4.97;56.31;101849.69;15526643;28;20078;-49
2024/03/19 08:10:59;;;;;;;1.65;0.40;;;;;;;5.33;55.11;101853.28;15535715;28;20054;-47
2024/03/19 08:18:34;;;;;;;0.32;0.30;;;;;;;5.68;53.17;101866.81;15537100;28;20050;-49
2024/03/19 08:26:09;;;;;;;0.73;0.73;;;;;;;6.38;51.53;101865.16;15540760;28;20422;-47
2024/03/19 08:33:46;;;;;;;0.20;0.20;;;;;;;7.55;48.15;101867.25;15551525;28;20045;-47
2024/03/19 08:41:21;;;;;;;1.58;0.93;;;;;;;7.58;49.03;101867.78;15539903;28;20057;-50
2024/03/19 08:48:56;;;;;;;0.10;0.10;;;;;;;7.57;48.78;101860.78;15541363;28;20367;-50
2024/03/19 08:56:32;;;;;;;0.63;0.63;;;;;;;7.64;47.07;101864.44;15527622;28;20420;-50
2024/03/19 09:04:09;;;;;;;0.20;0.20;;;;;;;8.82;44.69;101861.50;15546257;28;20402;-49
2024/03/19 09:11:44;;;;;;;0.57;0.57;;;;;;;8.34;46.16;101871.22;15546973;28;20290;-47
2024/03/19 09:19:21;;;;;;;0.90;0.90;;;;;;;7.95;45.00;101852.31;15537908;28;20047;-51
2024/03/19 09:26:56;;;;;;;4.22;1.33;;;;;;;8.62;41.89;101845.78;15556877;28;20180;-47
2024/03/19 09:34:31;;;;;;;0.00;0.00;;;;;;;7.24;43.77;101846.47;15546712;28;20049;-47
2024/03/19 09:42:08;;;;;;;0.50;0.30;;;;;;;8.42;43.04;101848.00;15541883;28;20049;-48
2024/03/19 09:49:44;;;;;;;3.10;1.75;;;;;;;8.54;43.43;101847.66;15548336;28;20132;-51
2024/03/19 09:57:19;;;;;;;1.27;0.55;;;;;;;8.90;42.39;101837.34;15540213;28;20050;-48
2024/03/19 10:04:54;;;;;;;0.05;0.05;;;;;;;9.22;42.43;101830.22;15547181;28;20050;-49
2024/03/19 10:12:32;;;;;;;1.25;0.95;;;;;;;9.47;41.60;101825.59;15554422;28;20517;-47
2024/03/19 10:20:11;;;;;;;0.00;0.00;;;;;;;10.30;40.55;101825.63;15550735;23;20042;-51
2024/03/19 10:27:46;;;;;;;0.10;0.10;;;;;;;11.14;39.20;101820.03;15532794;28;20058;-51
2024/03/19 10:35:23;;;;;;;2.28;0.90;;;;;;;11.37;38.50;101779.56;15532400;28;20045;-52
2024/03/19 10:42:58;;;;;;;0.88;0.60;;;;;;;12.39;36.80;101814.28;15542785;28;20056;-51
2024/03/19 10:50:35;;;;;;;0.00;0.00;;;;;;;11.51;36.87;101819.03;15554126;28;20050;-51
2024/03/19 10:58:11;;;;;;;1.25;1.10;;;;;;;11.32;38.09;101812.41;15539543;28;20078;-50
2024/03/19 11:05:47;;;;;;;1.92;1.27;;;;;;;12.51;36.24;101807.34;15531053;28;20038;-53
2024/03/19 11:13:25;;;;;;;4.88;1.40;;;;;;;11.89;37.30;101800.00;15545964;28;20453;-51
2024/03/19 11:21:00;;;;;;;0.13;0.13;;;;;;;13.04;35.49;101796.84;15545897;28;20743;-49
2024/03/19 11:28:34;;;;;;;0.60;0.38;;;;;;;12.86;34.59;101780.41;15532733;28;20088;-53
2024/03/19 11:36:14;;;;;;;0.80;0.80;;;;;;;11.42;36.80;101785.22;15536893;28;20042;-51
2024/03/19 11:43:48;;;;;;;0.00;0.00;;;;;;;12.74;34.86;101770.19;15545486;28;20080;-52
2024/03/19 11:51:24;;;;;;;1.40;0.60;;;;;;;13.07;33.36;101768.69;15538431;28;20089;-55
2024/03/19 11:59:01;;;;;;;0.32;0.32;;;;;;;13.95;32.68;101764.13;15535987;28;20142;-51
2024/03/19 12:06:36;;;;;;;0.10;0.10;;;;;;;13.38;33.42;101762.78;15542523;28;20034;-47
2024/03/19 12:14:13;;;;;;;1.05;0.98;;;;;;;13.48;33.23;101749.75;15551132;28;20049;-50
2024/03/19 12:21:50;;;;;;;2.28;1.17;;;;;;;13.51;31.92;101735.84;15542730;28;20053;-49
2024/03/19 12:29:25;;;;;;;0.52;0.52;;;;;;;14.26;30.57;101731.88;15533948;28;20082;-52
2024/03/19 12:37:00;;;;;;;0.20;0.20;;;;;;;13.84;32.85;101735.03;15548185;28;20100;-51
2024/03/19 12:44:35;;;;;;;0.40;0.22;;;;;;;14.69;30.21;101626.03;15506952;28;20045;-55
2024/03/19 12:52:12;;;;;;;1.30;0.98;;;;;;;14.66;31.14;101717.50;15522055;28;20109;-51
2024/03/19 12:59:47;;;;;;;0.82;0.60;;;;;;;14.80;32.35;101713.69;15523470;28;20053;-50
2024/03/19 13:07:25;;;;;;;1.17;0.40;;;;;;;15.24;31.15;101696.59;15540737;28;20034;-50
2024/03/19 13:14:59;;;;;;;0.00;0.00;;;;;;;14.13;31.08;101691.44;15530977;28;20239;-50
2024/03/19 13:22:34;;;;;;;0.13;0.13;;;;;;;13.99;32.02;101690.63;15527791;28;20074;-51
2024/03/19 13:30:09;;;;;;;0.55;0.55;;;;;;;13.27;33.18;101672.53;15562117;28;20049;-53
2024/03/19 13:37:45;;;;;;;0.22;0.10;;;;;;;13.33;33.26;101684.38;15535712;28;20115;-52
2024/03/19 13:45:24;;;;;;;1.00;0.38;;;;;;;13.94;31.36;101690.41;15540788;28;20074;-51
2024/03/19 13:52:59;;;;;;;1.65;0.80;;;;;;;12.80;34.15;101685.03;15520099;28;20102;-58
2024/03/19 14:00:35;;;;;;;0.40;0.30;;;;;;;12.01;35.63;101690.81;15557454;28;20686;-52
2024/03/19 14:08:10;;;;;;;1.38;0.95;;;;;;;11.90;35.24;101691.38;15529495;28;20054;-52
2024/03/19 14:15:44;;;;;;;0.10;0.10;;;;;;;12.10;35.55;101688.81;15546677;28;20070;-52
2024/03/19 14:23:20;;;;;;;0.88;0.75;;;;;;;12.11;35.25;101685.91;15532853;28;20507;-53
2024/03/19 14:31:00;;;;;;;1.95;0.65;;;;;;;12.08;35.93;101680.13;15521301;28;20072;-52
2024/03/19 14:38:36;;;;;;;0.98;0.88;;;;;;;12.05;35.53;101680.50;15521192;28;20046;-53
2024/03/19 14:46:10;;;;;;;0.30;0.30;;;;;;;12.19;36.60;101672.31;15513734;28;20046;-53
2024/03/19 14:53:47;;;;;;;0.28;0.28;;;;;;;12.03;35.48;101658.31;15528440;28;20181;-52
2024/03/19 15:01:22;;;;;;;0.00;0.00;;;;;;;11.83;35.88;101663.59;15550977;28;20145;-52
2024/03/19 15:08:57;;;;;;;1.25;1.15;;;;;;;11.45;36.35;101661.19;15554998;28;20081;-52
2024/03/19 15:16:31;;;;;;;1.98;0.75;;;;;;;11.58;36.87;101665.84;15547689;28;20038;-52
2024/03/19 15:24:11;;;;;;;1.23;0.90;;;;;;;11.27;37.17;101650.88;15544819;28;20076;-51
2024/03/19 15:31:44;;;;;;;0.03;0.03;;;;;;;11.16;37.76;101657.59;15534367;28;20132;-52
2024/03/19 15:39:20;;;;;;;0.40;0.40;;;;;;;10.90;39.52;101649.25;15543202;28;20046;-54
2024/03/19 15:46:54;;;;;;;0.30;0.10;;;;;;;11.01;39.09;101632.66;15528909;28;20270;-53
2024/03/19 15:54:31;;;;;;;1.50;1.35;;;;;;;10.72;39.07;101636.25;15530725;28;20053;-50
2024/03/19 16:02:06;;;;;;;0.20;0.20;;;;;;;10.71;37.85;101637.28;15506714;28;20422;-53
2024/03/19 16:09:41;;;;;;;0.00;0.00;;;;;;;11.31;36.98;101641.41;15534860;28;20042;-54
2024/03/19 16:17:15;;;;;;;0.40;0.40;;;;;;;10.96;38.68;101645.84;15548612;28;20053;-48
2024/03/19 16:24:53;;;;;;;1.38;0.63;;;;;;;10.92;40.29;101650.75;15533054;28;20620;-52
2024/03/19 16:32:28;;;;;;;0.20;0.20;;;;;;;10.40;40.32;101635.69;15538250;28;20057;-52
2024/03/19 16:40:05;;;;;;;0.45;0.45;;;;;;;10.53;39.35;101640.38;15539972;28;20061;-51
2024/03/19 16:47:39;;;;;;;0.10;0.10;;;;;;;10.38;40.66;101644.94;15538225;28;20096;-50
2024/03/19 16:55:14;;;;;;;0.15;0.15;;;;;;;10.23;41.14;101644.91;15528779;28;20057;-48
2024/03/19 17:02:48;;;;;;;0.80;0.70;;;;;;;10.43;40.78;101640.66;15551035;28;20060;-48
2024/03/19 17:10:25;;;;;;;1.17;0.85;;;;;;;10.41;40.56;101639.19;15534131;28;20046;-53
2024/03/19 17:17:59;;;;;;;0.25;0.25;;;;;;;9.63;42.47;101641.34;15542801;28;20038;-51
2024/03/19 17:25:39;;;;;;;0.00;0.00;;;;;;;9.36;43.09;101660.66;15551895;28;20034;-52
2024/03/19 17:33:14;;;;;;;2.85;1.55;;;;;;;10.17;42.61;101681.38;15549681;28;20050;-51
2024/03/19 17:40:50;;;;;;;1.88;1.08;;;;;;;10.13;41.83;101698.84;15517653;28;20050;-50
2024/03/19 17:48:23;;;;;;;2.55;0.65;;;;;;;10.18;45.45;101706.34;15526164;28;20105;-50
2024/03/19 17:55:59;;;;;;;1.02;0.63;;;;;;;9.88;45.51;101722.38;15537891;28;20046;-55
2024/03/19 18:03:32;;;;;;;2.10;0.77;;;;;;;9.80;46.21;101725.16;15557078;28;20069;-49
2024/03/19 18:11:08;;;;;;;0.93;0.80;;;;;;;9.77;45.46;101724.66;15555474;28;20077;-51
2024/03/19 18:18:42;;;;;;;1.15;1.10;;;;;;;9.52;46.26;101729.41;15529512;28;20490;-54
2024/03/19 18:26:17;;;;;;;0.00;0.00;;;;;;;9.22;45.66;101728.41;15545252;28;20042;-48
2024/03/19 18:33:53;;;;;;;0.20;0.20;;;;;;;9.25;46.98;101736.13;15537245;28;20034;-48
2024/03/19 18:41:30;;;;;;;0.55;0.55;;;;;;;9.07;47.85;101736.38;15541611;28;20430;-51
2024/03/19 18:49:04;;;;;;;3.45;1.45;;;;;;;9.14;46.75;101735.50;15528688;28;20077;-49
2024/03/19 18:56:40;;;;;;;0.15;0.15;;;;;;;8.98;47.25;101737.44;15550639;28;20043;-51
2024/03/19 19:04:19;;;;;;;1.00;0.95;;;;;;;8.77;48.35;101744.22;15536796;28;20268;-49
2024/03/19 19:11:55;;;;;;;11.32;2.22;;;;;;;8.73;49.61;101747.41;15534275;28;20180;-51
2024/03/19 19:19:29;;;;;;;3.03;0.70;;;;;;;8.58;49.48;101737.44;15512266;28;20511;-49
2024/03/19 19:27:05;;;;;;;1.23;0.85;;;;;;;8.27;47.54;101731.13;15520690;28;20046;-50
2024/03/19 19:34:38;;;;;;;0.65;0.65;;;;;;;8.39;46.90;101733.31;15536559;28;20115;-52
2024/03/19 19:42:15;;;;;;;0.00;0.00;;;;;;;8.32;46.56;101731.47;15540431;28;20034;-48
2024/03/19 19:49:53;;;;;;;3.45;0.32;;;;;;;8.62;46.59;101737.91;15529071;28;20050;-51
2024/03/19 19:57:28;;;;;;;0.32;0.32;;;;;;;7.84;47.22;101730.53;15532704;28;20512;-55
2024/03/19 20:05:02;;;;;;;0.85;0.68;;;;;;;8.41;47.86;101728.63;15534261;28;20562;-52
2024/03/19 20:12:38;;;;;;;1.38;1.27;;;;;;;8.10;47.00;101728.47;15540543;28;21240;-49
2024/03/19 20:20:14;;;;;;;0.20;0.20;;;;;;;7.65;48.42;101723.69;15527576;28;20072;-51
2024/03/19 20:27:50;;;;;;;0.20;0.20;;;;;;;7.61;49.79;101723.19;15540259;28;20044;-53
2024/03/19 20:35:23;;;;;;;0.73;0.73;;;;;;;7.71;49.61;101731.03;15534845;28;20442;-52
2024/03/19 20:42:58;;;;;;;3.75;1.35;;;;;;;7.44;51.14;101747.38;15531692;28;20077;-51
2024/03/19 20:50:32;;;;;;;0.13;0.13;;;;;;;7.32;53.27;101734.34;15540508;28;20117;-49
2024/03/19 20:58:08;;;;;;;1.17;1.02;;;;;;;7.45;51.04;101731.16;15526721;28;20052;-50
2024/03/19 21:05:43;;;;;;;0.22;0.22;;;;;;;7.44;50.98;101728.69;15547086;28;20043;-48
2024/03/19 21:13:18;;;;;;;3.30;1.27;;;;;;;7.41;51.89;101716.47;15526496;28;20050;-50
2024/03/19 21:20:54;;;;;;;0.30;0.30;;;;;;;7.34;51.01;101713.63;15537858;28;20106;-52
2024/03/19 21:28:30;;;;;;;0.00;0.00;;;;;;;7.01;51.20;101699.41;15539971;28;20049;-51
2024/03/19 21:36:04;;;;;;;0.45;0.40;;;;;;;7.17;50.70;101690.56;15540786;28;20046;-53
2024/03/19 21:43:40;;;;;;;0.25;0.17;;;;;;;7.00;50.50;101697.72;15524508;28;20410;-50
2024/03/19 21:51:16;;;;;;;0.00;0.00;;;;;;;7.34;49.32;101692.28;15550664;28;20133;-51
2024/03/19 21:58:52;;;;;;;2.65;1.55;;;;;;;7.37;49.04;101683.09;15528814;28;20458;-52
2024/03/19 22:06:26;;;;;;;1.48;1.05;;;;;;;7.03;49.10;101680.53;15548537;28;20061;-50
2024/03/19 22:14:06;;;;;;;1.10;0.98;;;;;;;6.85;51.88;101681.53;15503089;28;20112;-49
2024/03/19 22:21:40;;;;;;;2.28;1.10;;;;;;;6.56;51.33;101671.22;15554458;23;20129;-49
2024/03/19 22:29:16;;;;;;;0.35;0.35;;;;;;;6.67;52.14;101672.78;15544723;28;20054;-47
2024/03/19 22:36:49;;;;;;;1.17;0.80;;;;;;;6.26;52.24;101669.94;15536880;28;20490;-47
2024/03/19 22:44:28;;;;;;;0.30;0.30;;;;;;;6.70;50.93;101675.13;15547157;28;20447;-47
2024/03/19 22:52:02;;;;;;;0.35;0.30;;;;;;;6.61;50.95;101671.56;15534364;28;20508;-49
2024/03/19 22:59:37;;;;;;;0.32;0.32;;;;;;;6.78;50.53;101676.97;15535108;28;20077;-46
2024/03/19 23:07:10;;;;;;;0.52;0.52;;;;;;;7.38;51.47;101672.25;15543391;28;20136;-47
2024/03/19 23:14:45;;;;;;;1.00;0.95;;;;;;;7.34;50.83;101675.41;15547047;28;20057;-48
2024/03/19 23:22:20;;;;;;;0.35;0.35;;;;;;;7.24;50.09;101664.91;15534271;28;20514;-47
2024/03/19 23:29:55;;;;;;;5.38;2.03;;;;;;;6.58;51.75;101658.59;15542126;28;20104;-48
2024/03/19 23:37:32;;;;;;;0.00;0.00;;;;;;;6.32;53.07;101650.63;15513270;28;20254;-50
2024/03/19 23:45:09;;;;;;;0.20;0.20;;;;;;;6.04;54.27;101644.66;15536013;28;20045;-47
2024/03/19 23:52:42;;;;;;;1.23;1.15;;;;;;;5.95;55.25;101642.13;15547157;28;20155;-49
